Time;durP1;ratioP1;P1;durP2;ratioP2;P2;SDS_P1;SDS_P2;PMS_P1;PMS_P2;Temp;Humidity;BMP_temperature;BMP_pressure;BME280_temperature;BME280_humidity;BME280_pressure;Samples;Min_cycle;Max_cycle;Signal;HPM_P1;HPM_P2
2021/11/20 00:00:35;;;;;;;12.10;10.70;;;;;;;;;;4546768;28;20026;-67
2021/11/20 00:02:45;;;;;;;13.57;12.18;;;;;;;;;;4544490;28;20049;-66
2021/11/20 00:04:56;;;;;;;13.03;11.00;;;;;;;;;;4546400;28;20481;-66
2021/11/20 00:07:07;;;;;;;12.57;11.27;;;;;;;;;;4543062;28;20036;-66
2021/11/20 00:09:20;;;;;;;13.13;11.15;;;;;;;;;;4529770;28;20033;-67
2021/11/20 00:11:32;;;;;;;10.68;8.70;;;;;;;;;;4548934;28;20131;-66
2021/11/20 00:13:43;;;;;;;9.55;7.82;;;;;;;;;;4545784;28;20017;-66
2021/11/20 00:15:58;;;;;;;14.02;11.63;;;;;;;;;;4530517;28;20268;-66
2021/11/20 00:18:09;;;;;;;11.13;8.82;;;;;;;;;;4545586;28;20606;-66
2021/11/20 00:20:21;;;;;;;8.10;6.43;;;;;;;;;;4545910;28;20008;-66
2021/11/20 00:22:37;;;;;;;8.07;6.57;;;;;;;;;;4543341;28;20013;-67
2021/11/20 00:24:52;;;;;;;13.93;10.63;;;;;;;;;;4541526;28;20024;-66
2021/11/20 00:27:05;;;;;;;8.70;6.95;;;;;;;;;;4554667;28;20416;-66
2021/11/20 00:31:32;;;;;;;8.17;6.63;;;;;;;;;;4530587;28;20104;-66
2021/11/20 00:33:44;;;;;;;14.20;11.95;;;;;;;;;;4542201;28;20177;-66
2021/11/20 00:35:55;;;;;;;17.35;15.55;;;;;;;;;;4545620;28;27815;-66
2021/11/20 00:38:07;;;;;;;24.83;22.33;;;;;;;;;;4537049;28;20140;-66
2021/11/20 00:40:27;;;;;;;33.33;30.23;;;;;;;;;;4544906;28;20026;-67
2021/11/20 00:42:38;;;;;;;49.47;44.63;;;;;;;;;;4554071;28;20036;-66
2021/11/20 00:44:49;;;;;;;53.83;48.63;;;;;;;;;;4546174;28;20036;-67
2021/11/20 00:46:59;;;;;;;62.65;56.53;;;;;;;;;;4547376;28;20031;-66
2021/11/20 00:49:11;;;;;;;51.58;46.72;;;;;;;;;;4547531;28;20017;-66
2021/11/20 00:51:25;;;;;;;58.97;53.22;;;;;;;;;;4544584;28;20063;-66
2021/11/20 00:53:36;;;;;;;110.97;100.35;;;;;;;;;;4554149;28;20112;-66
2021/11/20 00:55:47;;;;;;;92.05;83.40;;;;;;;;;;4532285;28;20025;-66
2021/11/20 00:57:59;;;;;;;50.10;45.30;;;;;;;;;;4547038;28;20032;-66
2021/11/20 01:00:12;;;;;;;60.83;54.92;;;;;;;;;;4547155;28;20658;-66
2021/11/20 01:02:22;;;;;;;49.40;44.60;;;;;;;;;;4547694;28;20037;-66
2021/11/20 01:04:34;;;;;;;23.42;21.20;;;;;;;;;;4537083;28;20021;-66
2021/11/20 01:06:46;;;;;;;21.45;19.20;;;;;;;;;;4543822;28;20087;-66
2021/11/20 01:08:57;;;;;;;39.15;35.45;;;;;;;;;;4547217;28;21317;-66
2021/11/20 01:11:25;;;;;;;76.53;69.40;;;;;;;;;;4554518;28;20024;-66
2021/11/20 01:13:36;;;;;;;90.45;81.80;;;;;;;;;;4547627;28;20174;-66
2021/11/20 01:15:51;;;;;;;80.77;73.23;;;;;;;;;;4546064;28;20401;-66
2021/11/20 01:18:02;;;;;;;73.93;66.93;;;;;;;;;;4531461;28;20473;-66
2021/11/20 01:20:17;;;;;;;84.35;76.53;;;;;;;;;;4554299;28;20036;-66
2021/11/20 01:22:37;;;;;;;92.60;83.95;;;;;;;;;;4538369;28;20021;-66
2021/11/20 01:25:07;;;;;;;96.82;87.82;;;;;;;;;;4544400;28;20032;-66
2021/11/20 01:27:41;;;;;;;98.38;88.95;;;;;;;;;;4535302;28;20658;-66
2021/11/20 01:30:16;;;;;;;45.50;41.13;;;;;;;;;;4535069;28;20040;-67
2021/11/20 01:32:26;;;;;;;51.22;46.28;;;;;;;;;;4548965;28;20032;-66
2021/11/20 01:34:37;;;;;;;34.97;31.67;;;;;;;;;;4553841;28;20036;-66
2021/11/20 01:36:47;;;;;;;15.50;13.75;;;;;;;;;;4542741;28;20107;-66
2021/11/20 01:39:01;;;;;;;12.73;10.33;;;;;;;;;;4536609;28;20045;-66
2021/11/20 01:41:19;;;;;;;8.65;7.00;;;;;;;;;;4537891;28;20068;-66
2021/11/20 01:43:54;;;;;;;7.10;4.90;;;;;;;;;;4561531;28;20539;-66
2021/11/20 01:46:11;;;;;;;13.75;12.35;;;;;;;;;;4556274;28;20033;-67
2021/11/20 01:49:04;;;;;;;11.97;10.60;;;;;;;;;;4536018;28;20024;-66
2021/11/20 01:51:23;;;;;;;12.10;10.57;;;;;;;;;;4547082;28;20028;-66
2021/11/20 01:54:01;;;;;;;13.25;10.43;;;;;;;;;;4536861;28;20036;-66
2021/11/20 01:56:13;;;;;;;12.63;10.52;;;;;;;;;;4540924;28;20793;-68
2021/11/20 01:58:52;;;;;;;12.00;10.30;;;;;;;;;;4546680;28;21037;-66
2021/11/20 02:01:47;;;;;;;11.68;10.10;;;;;;;;;;4521233;28;20040;-66
2021/11/20 02:04:58;;;;;;;11.88;10.18;;;;;;;;;;4552849;28;21016;-66
2021/11/20 02:07:35;;;;;;;11.20;9.60;;;;;;;;;;4540959;28;20033;-66
2021/11/20 02:10:04;;;;;;;12.13;10.00;;;;;;;;;;4538509;28;20029;-66
2021/11/20 02:12:34;;;;;;;12.93;10.77;;;;;;;;;;4544863;28;20061;-66
2021/11/20 02:14:49;;;;;;;11.57;10.20;;;;;;;;;;4531459;28;20017;-66
2021/11/20 02:17:06;;;;;;;13.13;10.18;;;;;;;;;;4528147;28;20053;-66
2021/11/20 02:19:23;;;;;;;12.10;10.80;;;;;;;;;;4545958;28;20041;-66
2021/11/20 02:21:40;;;;;;;12.35;10.25;;;;;;;;;;4543895;28;20017;-66
2021/11/20 02:23:52;;;;;;;12.20;9.85;;;;;;;;;;4542915;28;21449;-66
2021/11/20 02:26:03;;;;;;;11.32;9.82;;;;;;;;;;4545368;28;20586;-66
2021/11/20 02:28:22;;;;;;;11.63;10.13;;;;;;;;;;4546989;28;20027;-66
2021/11/20 02:30:43;;;;;;;12.25;10.38;;;;;;;;;;4544790;28;20032;-66
2021/11/20 02:33:00;;;;;;;12.10;9.82;;;;;;;;;;4536672;28;20116;-67
2021/11/20 02:35:24;;;;;;;12.02;10.13;;;;;;;;;;4537264;28;20021;-66
2021/11/20 02:37:34;;;;;;;10.52;8.52;;;;;;;;;;4552192;28;20021;-66
2021/11/20 02:39:46;;;;;;;7.07;5.43;;;;;;;;;;4535916;28;20828;-67
2021/11/20 02:41:58;;;;;;;11.30;9.80;;;;;;;;;;4545201;28;20068;-66
2021/11/20 02:44:13;;;;;;;11.50;9.63;;;;;;;;;;4512569;28;20108;-66
2021/11/20 02:46:27;;;;;;;11.55;9.77;;;;;;;;;;4529972;28;20025;-66
2021/11/20 02:48:41;;;;;;;11.68;9.88;;;;;;;;;;4536761;28;20036;-66
2021/11/20 02:51:07;;;;;;;11.73;9.95;;;;;;;;;;4546137;28;20049;-66
2021/11/20 02:53:21;;;;;;;11.55;9.70;;;;;;;;;;4544949;28;20657;-66
2021/11/20 02:55:32;;;;;;;11.85;9.52;;;;;;;;;;4539892;28;20025;-66
2021/11/20 02:57:44;;;;;;;11.85;9.75;;;;;;;;;;4543683;28;20025;-66
2021/11/20 02:59:55;;;;;;;11.75;10.02;;;;;;;;;;4543449;28;20041;-66
2021/11/20 03:02:08;;;;;;;11.02;9.27;;;;;;;;;;4542314;28;20024;-65
2021/11/20 03:04:21;;;;;;;11.95;9.60;;;;;;;;;;4545235;28;20516;-66
2021/11/20 03:06:34;;;;;;;11.45;9.65;;;;;;;;;;4541822;28;20140;-68
2021/11/20 03:08:44;;;;;;;11.95;9.98;;;;;;;;;;4546365;28;20017;-66
2021/11/20 03:10:58;;;;;;;12.88;10.57;;;;;;;;;;4546552;28;20033;-66
2021/11/20 03:13:09;;;;;;;12.68;9.63;;;;;;;;;;4545534;28;20064;-66
2021/11/20 03:15:20;;;;;;;11.90;9.60;;;;;;;;;;4545491;28;20858;-66
2021/11/20 03:17:33;;;;;;;11.18;9.88;;;;;;;;;;4536125;28;20021;-66
2021/11/20 03:19:47;;;;;;;12.27;10.00;;;;;;;;;;4543091;28;20052;-67
2021/11/20 03:22:06;;;;;;;12.27;9.75;;;;;;;;;;4530625;28;20025;-66
2021/11/20 03:24:21;;;;;;;11.57;10.00;;;;;;;;;;4527501;28;20092;-66
2021/11/20 03:26:34;;;;;;;11.82;9.98;;;;;;;;;;4549088;28;20029;-66
2021/11/20 03:28:46;;;;;;;12.40;9.88;;;;;;;;;;4530967;28;20018;-67
2021/11/20 03:30:56;;;;;;;12.47;10.13;;;;;;;;;;4555670;28;20615;-66
2021/11/20 03:33:07;;;;;;;12.33;10.37;;;;;;;;;;4532239;28;20110;-66
2021/11/20 03:35:18;;;;;;;12.85;10.30;;;;;;;;;;4530465;28;20033;-66
2021/11/20 03:37:31;;;;;;;13.13;10.52;;;;;;;;;;4530010;28;20092;-66
2021/11/20 03:39:42;;;;;;;12.03;10.43;;;;;;;;;;4529637;28;20736;-66
2021/11/20 03:41:53;;;;;;;;;;;;;;;;;;4549440;28;20609;-66
2021/11/20 03:44:04;;;;;;;13.40;11.23;;;;;;;;;;4545820;28;19943;-66
2021/11/20 03:46:15;;;;;;;12.27;10.35;;;;;;;;;;4550870;28;20033;-66
2021/11/20 03:48:26;;;;;;;12.80;10.43;;;;;;;;;;4549533;28;20955;-66
2021/11/20 03:50:37;;;;;;;13.10;10.77;;;;;;;;;;4548876;28;20763;-67
2021/11/20 03:52:48;;;;;;;11.82;10.40;;;;;;;;;;4538189;28;21103;-66
2021/11/20 03:55:00;;;;;;;11.52;10.30;;;;;;;;;;4533428;28;20110;-66
2021/11/20 03:57:11;;;;;;;12.63;10.77;;;;;;;;;;4540443;28;20422;-67
2021/11/20 03:59:21;;;;;;;12.47;10.57;;;;;;;;;;4521046;28;20046;-66
2021/11/20 04:01:32;;;;;;;12.23;10.52;;;;;;;;;;4554804;28;20610;-67
2021/11/20 04:03:46;;;;;;;12.50;10.40;;;;;;;;;;4531722;28;20021;-66
2021/11/20 04:05:58;;;;;;;11.85;10.40;;;;;;;;;;4543908;28;20570;-66
2021/11/20 04:08:10;;;;;;;12.05;10.43;;;;;;;;;;4549221;28;20033;-66
2021/11/20 04:10:21;;;;;;;12.27;10.40;;;;;;;;;;4545504;28;20370;-66
2021/11/20 04:12:32;;;;;;;12.30;10.00;;;;;;;;;;4544673;28;20236;-67
2021/11/20 04:14:43;;;;;;;12.50;10.60;;;;;;;;;;4534304;28;20441;-66
2021/11/20 04:16:55;;;;;;;12.73;10.47;;;;;;;;;;4538309;28;20260;-66
2021/11/20 04:19:05;;;;;;;;;;;;;;;;;;4548589;28;20040;-66
2021/11/20 04:21:18;;;;;;;12.13;10.23;;;;;;;;;;4562398;28;19908;-66
2021/11/20 04:23:28;;;;;;;;;;;;;;;;;;4545462;28;20846;-66
2021/11/20 04:25:39;;;;;;;11.85;10.30;;;;;;;;;;4554748;28;19913;-66
2021/11/20 04:27:50;;;;;;;;;;;;;;;;;;4546266;28;20024;-67
2021/11/20 04:30:11;;;;;;;12.68;10.35;;;;;;;;;;4532295;28;19909;-66
2021/11/20 04:32:22;;;;;;;12.43;10.45;;;;;;;;;;4545430;28;20103;-66
2021/11/20 04:34:34;;;;;;;12.27;10.10;;;;;;;;;;4546173;28;20942;-66
2021/11/20 04:36:45;;;;;;;11.35;10.02;;;;;;;;;;4537327;28;20206;-66
2021/11/20 04:38:56;;;;;;;11.65;9.82;;;;;;;;;;4547876;28;20045;-66
2021/11/20 04:41:08;;;;;;;11.80;9.95;;;;;;;;;;4554563;28;20059;-66
2021/11/20 04:43:19;;;;;;;12.77;10.32;;;;;;;;;;4547818;28;20032;-66
2021/11/20 04:45:32;;;;;;;11.82;9.90;;;;;;;;;;4547125;28;20025;-66
2021/11/20 04:47:43;;;;;;;12.93;10.25;;;;;;;;;;4554308;28;20633;-66
2021/11/20 04:49:58;;;;;;;11.60;10.35;;;;;;;;;;4543945;28;20472;-66
2021/11/20 04:52:09;;;;;;;11.57;9.63;;;;;;;;;;4547164;28;20025;-66
2021/11/20 04:54:19;;;;;;;10.80;9.52;;;;;;;;;;4527042;28;20025;-66
2021/11/20 04:56:30;;;;;;;12.50;10.13;;;;;;;;;;4547933;28;20092;-64
2021/11/20 04:58:41;;;;;;;12.13;10.33;;;;;;;;;;4544630;28;20040;-66
2021/11/20 05:00:53;;;;;;;12.98;10.35;;;;;;;;;;4546526;28;20033;-66
2021/11/20 05:03:09;;;;;;;11.85;9.98;;;;;;;;;;4527676;28;20029;-66
2021/11/20 05:05:25;;;;;;;12.07;10.07;;;;;;;;;;4561302;28;20671;-65
2021/11/20 05:07:35;;;;;;;13.07;10.67;;;;;;;;;;4542833;28;20029;-66
2021/11/20 05:09:46;;;;;;;11.63;10.10;;;;;;;;;;4554108;28;20033;-66
2021/11/20 05:11:56;;;;;;;12.90;10.60;;;;;;;;;;4543238;28;20282;-66
2021/11/20 05:14:09;;;;;;;12.25;10.23;;;;;;;;;;4545718;28;20029;-66
2021/11/20 05:16:20;;;;;;;11.73;9.97;;;;;;;;;;4533108;28;20645;-65
2021/11/20 05:18:30;;;;;;;12.17;10.13;;;;;;;;;;4544631;28;20152;-65
2021/11/20 05:20:52;;;;;;;12.55;10.32;;;;;;;;;;4544736;28;20032;-66
2021/11/20 05:23:03;;;;;;;12.07;10.00;;;;;;;;;;4547026;28;20775;-68
2021/11/20 05:25:14;;;;;;;;;;;;;;;;;;4532761;28;20107;-66
2021/11/20 05:27:25;;;;;;;13.50;10.48;;;;;;;;;;4532452;28;20446;-66
2021/11/20 05:32:05;;;;;;;12.63;10.30;;;;;;;;;;4538028;28;20086;-66
2021/11/20 05:34:21;;;;;;;11.90;9.93;;;;;;;;;;4542459;28;20075;-66
2021/11/20 05:36:35;;;;;;;11.77;9.83;;;;;;;;;;4522148;28;20059;-66
2021/11/20 05:38:48;;;;;;;13.05;10.23;;;;;;;;;;4548571;28;20037;-65
2021/11/20 05:40:58;;;;;;;11.73;9.70;;;;;;;;;;4553659;28;20024;-65
2021/11/20 05:43:20;;;;;;;12.57;9.70;;;;;;;;;;4547414;28;20035;-66
2021/11/20 05:45:34;;;;;;;11.30;9.88;;;;;;;;;;4549000;28;20029;-65
2021/11/20 05:47:45;;;;;;;11.90;10.13;;;;;;;;;;4546769;28;20056;-66
2021/11/20 05:49:55;;;;;;;13.63;10.40;;;;;;;;;;4546643;28;20124;-66
2021/11/20 05:52:08;;;;;;;12.33;9.90;;;;;;;;;;4561364;28;20032;-66
2021/11/20 05:54:18;;;;;;;12.15;10.07;;;;;;;;;;4544874;28;20854;-66
2021/11/20 05:56:32;;;;;;;11.05;9.57;;;;;;;;;;4545402;28;20265;-66
2021/11/20 05:58:43;;;;;;;12.30;10.48;;;;;;;;;;4546291;28;20905;-66
2021/11/20 06:00:58;;;;;;;13.97;10.47;;;;;;;;;;4554190;28;20116;-65
2021/11/20 06:03:10;;;;;;;11.70;9.77;;;;;;;;;;4512137;28;20056;-65
2021/11/20 06:05:36;;;;;;;11.43;9.18;;;;;;;;;;4553067;28;20131;-65
2021/11/20 06:07:46;;;;;;;12.07;9.85;;;;;;;;;;4549127;28;20079;-66
2021/11/20 06:09:56;;;;;;;11.20;9.70;;;;;;;;;;4547831;28;20016;-65
2021/11/20 06:12:10;;;;;;;12.82;10.27;;;;;;;;;;4546854;28;20066;-65
2021/11/20 06:14:22;;;;;;;11.60;9.32;;;;;;;;;;4530106;28;20611;-66
2021/11/20 06:16:33;;;;;;;12.03;9.90;;;;;;;;;;4544939;28;20052;-66
2021/11/20 06:18:43;;;;;;;11.45;9.32;;;;;;;;;;4538717;28;20151;-66
2021/11/20 06:20:55;;;;;;;11.90;9.73;;;;;;;;;;4514173;28;20037;-66
2021/11/20 06:23:06;;;;;;;11.63;9.50;;;;;;;;;;4543290;28;20137;-65
2021/11/20 06:25:17;;;;;;;12.13;9.80;;;;;;;;;;4545261;28;20575;-65
2021/11/20 06:27:28;;;;;;;11.43;9.35;;;;;;;;;;4550393;28;20017;-65
2021/11/20 06:29:47;;;;;;;11.77;9.68;;;;;;;;;;4553423;28;20024;-65
2021/11/20 06:31:59;;;;;;;11.75;9.48;;;;;;;;;;4545633;28;20742;-65
2021/11/20 06:34:23;;;;;;;11.35;9.20;;;;;;;;;;4552573;28;20035;-66
2021/11/20 06:36:52;;;;;;;11.25;9.35;;;;;;;;;;4544600;28;20032;-65
2021/11/20 06:39:14;;;;;;;12.57;9.90;;;;;;;;;;4545607;28;20044;-66
2021/11/20 06:41:26;;;;;;;11.07;9.07;;;;;;;;;;4541888;28;20548;-66
2021/11/20 06:43:36;;;;;;;;;;;;;;;;;;4544761;28;20049;-65
2021/11/20 06:45:50;;;;;;;12.60;9.70;;;;;;;;;;4542157;28;20675;-65
2021/11/20 06:48:01;;;;;;;12.18;9.35;;;;;;;;;;4530524;28;22378;-66
2021/11/20 06:50:12;;;;;;;11.90;9.27;;;;;;;;;;4543702;28;20091;-65
2021/11/20 06:52:42;;;;;;;11.73;9.10;;;;;;;;;;4545080;28;20034;-66
2021/11/20 06:55:27;;;;;;;10.70;8.80;;;;;;;;;;4542446;28;20666;-66
2021/11/20 06:58:08;;;;;;;;;;;;;;;;;;4550030;28;20044;-66
2021/11/20 07:00:37;;;;;;;10.40;8.48;;;;;;;;;;4559954;28;20412;-66
2021/11/20 07:03:13;;;;;;;10.30;8.57;;;;;;;;;;4537494;28;21261;-65
2021/11/20 07:05:27;;;;;;;10.52;8.25;;;;;;;;;;4512062;28;20630;-66
2021/11/20 07:07:38;;;;;;;9.88;7.70;;;;;;;;;;4536611;28;20029;-66
2021/11/20 07:09:49;;;;;;;9.80;7.60;;;;;;;;;;4543712;28;20562;-66
2021/11/20 07:12:00;;;;;;;9.57;7.70;;;;;;;;;;4544269;28;20025;-66
2021/11/20 07:14:10;;;;;;;9.07;7.40;;;;;;;;;;4535433;28;20584;-65
2021/11/20 07:16:24;;;;;;;9.90;7.77;;;;;;;;;;4540412;28;20025;-66
2021/11/20 07:18:37;;;;;;;9.63;7.47;;;;;;;;;;4551405;28;20072;-65
2021/11/20 07:21:27;;;;;;;9.80;7.53;;;;;;;;;;4487589;28;20545;-66
2021/11/20 07:23:53;;;;;;;9.10;7.15;;;;;;;;;;4479348;28;20145;-66
2021/11/20 07:26:06;;;;;;;9.48;7.65;;;;;;;;;;4500982;28;20039;-66
2021/11/20 07:28:17;;;;;;;9.38;7.45;;;;;;;;;;4546404;28;20025;-66
2021/11/20 07:30:29;;;;;;;9.73;7.35;;;;;;;;;;4545601;28;20060;-66
2021/11/20 07:32:40;;;;;;;8.75;6.72;;;;;;;;;;4552087;28;20131;-66
2021/11/20 07:34:50;;;;;;;9.10;7.17;;;;;;;;;;4544378;28;20149;-65
2021/11/20 07:37:01;;;;;;;9.80;8.10;;;;;;;;;;4550979;28;26502;-66
2021/11/20 07:39:15;;;;;;;9.70;7.47;;;;;;;;;;4544812;28;20155;-66
2021/11/20 07:41:28;;;;;;;9.70;7.50;;;;;;;;;;4541826;28;20143;-66
2021/11/20 07:43:44;;;;;;;9.02;7.55;;;;;;;;;;4526529;28;20808;-66
2021/11/20 07:46:09;;;;;;;10.13;8.18;;;;;;;;;;4546985;28;20681;-66
2021/11/20 07:48:22;;;;;;;10.40;8.38;;;;;;;;;;4545465;28;20020;-66
2021/11/20 07:50:33;;;;;;;11.18;8.40;;;;;;;;;;4547526;28;20147;-66
2021/11/20 07:52:44;;;;;;;10.40;8.33;;;;;;;;;;4552109;28;21182;-65
2021/11/20 07:54:55;;;;;;;8.75;7.68;;;;;;;;;;4551292;28;20643;-66
2021/11/20 07:57:08;;;;;;;9.35;7.82;;;;;;;;;;4541598;28;20029;-66
2021/11/20 07:59:19;;;;;;;9.88;8.02;;;;;;;;;;4543082;28;20044;-65
2021/11/20 08:01:32;;;;;;;10.13;8.43;;;;;;;;;;4543805;28;20057;-66
2021/11/20 08:03:44;;;;;;;10.73;8.57;;;;;;;;;;4544501;28;20123;-66
2021/11/20 08:06:07;;;;;;;10.10;8.40;;;;;;;;;;4543327;28;20294;-66
2021/11/20 08:08:24;;;;;;;10.30;8.77;;;;;;;;;;4554187;28;20047;-66
2021/11/20 08:10:50;;;;;;;10.57;8.57;;;;;;;;;;4546959;28;20017;-66
2021/11/20 08:13:01;;;;;;;11.13;9.30;;;;;;;;;;4533802;28;20030;-65
2021/11/20 08:15:40;;;;;;;10.70;9.00;;;;;;;;;;4536377;28;20114;-66
2021/11/20 08:18:09;;;;;;;11.23;9.38;;;;;;;;;;4546813;28;20701;-66
2021/11/20 08:20:32;;;;;;;10.75;8.93;;;;;;;;;;4546618;28;20612;-66
2021/11/20 08:23:09;;;;;;;12.27;9.65;;;;;;;;;;4554900;28;20655;-66
2021/11/20 08:25:22;;;;;;;11.32;9.38;;;;;;;;;;4558831;28;20170;-66
2021/11/20 08:27:33;;;;;;;13.20;11.75;;;;;;;;;;4536713;28;20023;-66
2021/11/20 08:29:52;;;;;;;10.93;9.50;;;;;;;;;;4548583;28;20595;-66
2021/11/20 08:32:05;;;;;;;12.68;10.85;;;;;;;;;;4513803;28;20061;-65
2021/11/20 08:34:28;;;;;;;12.43;11.10;;;;;;;;;;4535358;28;20034;-66
2021/11/20 08:36:47;;;;;;;13.07;11.70;;;;;;;;;;4542978;28;20024;-66
2021/11/20 08:39:31;;;;;;;11.05;9.65;;;;;;;;;;4533428;28;20052;-66
2021/11/20 08:41:46;;;;;;;11.77;9.65;;;;;;;;;;4547082;28;20125;-66
2021/11/20 08:43:57;;;;;;;10.27;8.50;;;;;;;;;;4551021;28;20598;-66
2021/11/20 08:46:15;;;;;;;12.52;10.40;;;;;;;;;;4538978;28;20575;-65
2021/11/20 08:48:26;;;;;;;14.13;11.43;;;;;;;;;;4544506;28;20094;-65
2021/11/20 08:50:40;;;;;;;14.30;12.48;;;;;;;;;;4535978;28;20558;-66
2021/11/20 08:52:50;;;;;;;19.75;16.63;;;;;;;;;;4548749;28;20023;-65
2021/11/20 08:55:01;;;;;;;18.40;14.70;;;;;;;;;;4545631;28;20027;-65
2021/11/20 08:57:11;;;;;;;21.07;16.67;;;;;;;;;;4545352;28;20036;-66
2021/11/20 08:59:24;;;;;;;13.15;10.82;;;;;;;;;;4546252;28;20045;-66
2021/11/20 09:02:04;;;;;;;22.55;20.20;;;;;;;;;;4552387;28;20044;-65
2021/11/20 09:04:32;;;;;;;12.25;10.95;;;;;;;;;;4536961;28;20033;-65
2021/11/20 09:06:45;;;;;;;10.30;8.70;;;;;;;;;;4547586;28;20091;-66
2021/11/20 09:09:50;;;;;;;11.95;9.60;;;;;;;;;;4553552;28;20076;-68
2021/11/20 09:12:03;;;;;;;11.55;9.68;;;;;;;;;;4499040;28;20119;-65
2021/11/20 09:14:22;;;;;;;10.93;9.30;;;;;;;;;;4545125;28;20078;-65
2021/11/20 09:17:12;;;;;;;11.77;9.30;;;;;;;;;;4532229;28;21096;-68
2021/11/20 09:19:22;;;;;;;11.93;9.82;;;;;;;;;;4558661;28;20133;-68
2021/11/20 09:21:34;;;;;;;12.37;9.87;;;;;;;;;;4546171;28;20355;-68
2021/11/20 09:24:12;;;;;;;12.10;9.85;;;;;;;;;;4527956;28;20047;-68
2021/11/20 09:26:24;;;;;;;12.77;9.98;;;;;;;;;;4542850;28;20025;-67
2021/11/20 09:28:36;;;;;;;11.20;9.25;;;;;;;;;;4553492;28;20513;-68
2021/11/20 09:30:51;;;;;;;11.75;9.90;;;;;;;;;;4545825;28;20565;-68
2021/11/20 09:33:02;;;;;;;12.70;9.77;;;;;;;;;;4536662;28;20768;-68
2021/11/20 09:35:18;;;;;;;12.80;10.38;;;;;;;;;;4531814;28;20030;-68
2021/11/20 09:37:55;;;;;;;12.82;10.75;;;;;;;;;;4534127;28;20031;-68
2021/11/20 09:40:09;;;;;;;12.80;10.82;;;;;;;;;;4544463;28;20044;-68
2021/11/20 09:42:33;;;;;;;11.73;10.40;;;;;;;;;;4546422;28;20036;-68
2021/11/20 09:44:46;;;;;;;12.27;10.75;;;;;;;;;;4547177;28;20025;-68
2021/11/20 09:47:05;;;;;;;12.95;10.90;;;;;;;;;;4553251;28;20051;-68
2021/11/20 09:49:47;;;;;;;12.73;10.75;;;;;;;;;;4553315;28;20076;-68
2021/11/20 09:52:03;;;;;;;11.88;9.77;;;;;;;;;;4542634;28;20036;-68
2021/11/20 09:54:17;;;;;;;11.68;10.27;;;;;;;;;;4552728;28;21739;-68
2021/11/20 09:56:31;;;;;;;13.05;10.50;;;;;;;;;;4543927;28;20024;-68
2021/11/20 09:58:44;;;;;;;11.80;10.27;;;;;;;;;;4546910;28;20690;-68
2021/11/20 10:01:17;;;;;;;11.75;10.43;;;;;;;;;;4543892;28;20082;-68
2021/11/20 10:03:30;;;;;;;13.20;10.65;;;;;;;;;;4544351;28;20037;-68
2021/11/20 10:05:44;;;;;;;12.27;10.63;;;;;;;;;;4543926;28;20069;-68
2021/11/20 10:08:03;;;;;;;12.95;10.93;;;;;;;;;;4544839;28;20017;-69
2021/11/20 10:10:45;;;;;;;13.90;11.88;;;;;;;;;;4544947;28;20054;-68
2021/11/20 10:13:16;;;;;;;;;;;;;;;;;;4544193;28;20036;-67
2021/11/20 10:15:29;;;;;;;13.48;11.50;;;;;;;;;;4543545;28;19915;-68
2021/11/20 10:17:47;;;;;;;13.68;11.70;;;;;;;;;;4544324;28;20063;-68
2021/11/20 10:20:30;;;;;;;13.30;11.07;;;;;;;;;;4542158;28;20045;-68
2021/11/20 10:22:52;;;;;;;14.30;11.73;;;;;;;;;;4543656;28;21391;-68
2021/11/20 10:25:21;;;;;;;14.63;12.43;;;;;;;;;;4545039;28;20116;-68
2021/11/20 10:27:39;;;;;;;15.55;12.30;;;;;;;;;;4544505;28;20063;-68
2021/11/20 10:30:11;;;;;;;15.57;11.93;;;;;;;;;;4552222;28;21655;-68
2021/11/20 10:32:40;;;;;;;;;;;;;;;;;;4542840;28;20025;-68
2021/11/20 10:34:55;;;;;;;13.38;11.00;;;;;;;;;;4543313;28;19908;-68
2021/11/20 10:37:15;;;;;;;14.30;11.52;;;;;;;;;;4542197;28;20059;-68
2021/11/20 10:39:35;;;;;;;14.27;11.00;;;;;;;;;;4534096;28;20037;-68
2021/11/20 10:41:51;;;;;;;12.88;10.85;;;;;;;;;;4527390;28;20098;-68
2021/11/20 10:44:24;;;;;;;13.80;10.88;;;;;;;;;;4543129;28;20074;-65
2021/11/20 10:46:50;;;;;;;12.80;10.23;;;;;;;;;;4542280;28;20071;-65
2021/11/20 10:49:31;;;;;;;12.43;9.95;;;;;;;;;;4542923;28;20025;-65
2021/11/20 10:52:26;;;;;;;14.63;10.80;;;;;;;;;;4539987;28;20021;-65
2021/11/20 10:54:43;;;;;;;13.85;10.18;;;;;;;;;;4485812;28;20048;-65
2021/11/20 10:57:16;;;;;;;11.57;9.35;;;;;;;;;;4543032;28;20025;-66
2021/11/20 11:00:04;;;;;;;13.07;9.80;;;;;;;;;;4544931;28;20631;-65
2021/11/20 11:02:44;;;;;;;13.10;10.60;;;;;;;;;;4543463;28;20044;-65
2021/11/20 11:05:16;;;;;;;12.65;9.55;;;;;;;;;;4540577;28;20104;-65
2021/11/20 11:07:59;;;;;;;12.85;10.10;;;;;;;;;;4545173;28;20037;-66
2021/11/20 11:10:12;;;;;;;13.07;10.60;;;;;;;;;;4496953;28;20836;-66
2021/11/20 11:12:58;;;;;;;11.57;9.55;;;;;;;;;;4546674;28;20052;-65
2021/11/20 11:15:17;;;;;;;11.73;8.95;;;;;;;;;;4505048;28;20107;-65
2021/11/20 11:17:43;;;;;;;10.93;9.02;;;;;;;;;;4529822;28;20032;-65
2021/11/20 11:20:07;;;;;;;11.48;8.88;;;;;;;;;;4543009;28;20628;-66
2021/11/20 11:22:23;;;;;;;12.35;9.77;;;;;;;;;;4542488;28;20115;-66
2021/11/20 11:24:59;;;;;;;10.63;9.05;;;;;;;;;;4540971;28;20029;-66
2021/11/20 11:27:41;;;;;;;11.30;9.38;;;;;;;;;;4552016;28;20639;-66
2021/11/20 11:30:02;;;;;;;10.35;8.38;;;;;;;;;;4529726;28;20738;-66
2021/11/20 11:32:14;;;;;;;11.43;9.35;;;;;;;;;;4542339;28;20021;-65
2021/11/20 11:34:33;;;;;;;10.60;8.63;;;;;;;;;;4533694;28;20029;-65
2021/11/20 11:36:50;;;;;;;9.60;8.05;;;;;;;;;;4545272;28;20113;-66
2021/11/20 11:39:14;;;;;;;10.90;8.48;;;;;;;;;;4544586;28;20068;-66
2021/11/20 11:41:33;;;;;;;10.68;8.63;;;;;;;;;;4543803;28;20029;-66
2021/11/20 11:43:50;;;;;;;10.75;9.15;;;;;;;;;;4543765;28;20028;-65
2021/11/20 11:46:00;;;;;;;11.07;8.80;;;;;;;;;;4546441;28;20076;-65
2021/11/20 11:48:13;;;;;;;11.33;9.37;;;;;;;;;;4545519;28;20108;-65
2021/11/20 11:50:42;;;;;;;10.35;8.75;;;;;;;;;;4545544;28;20067;-66
2021/11/20 11:52:58;;;;;;;10.73;8.82;;;;;;;;;;4546176;28;20079;-65
2021/11/20 11:55:42;;;;;;;10.70;8.68;;;;;;;;;;4545079;28;20116;-66
2021/11/20 11:58:19;;;;;;;10.32;8.45;;;;;;;;;;4545728;28;20559;-66
2021/11/20 12:00:30;;;;;;;10.88;8.95;;;;;;;;;;4545455;28;20860;-65
2021/11/20 12:02:49;;;;;;;10.87;8.97;;;;;;;;;;4545851;28;20099;-65
2021/11/20 12:05:23;;;;;;;10.63;8.93;;;;;;;;;;4544714;28;20643;-65
2021/11/20 12:07:45;;;;;;;9.98;8.50;;;;;;;;;;4545074;28;20028;-66
2021/11/20 12:10:12;;;;;;;;;;;;;;;;;;4545803;28;20025;-65
2021/11/20 12:12:29;;;;;;;10.50;8.55;;;;;;;;;;4528770;28;20474;-65
2021/11/20 12:14:44;;;;;;;10.38;8.35;;;;;;;;;;4544611;28;20689;-65
2021/11/20 12:17:33;;;;;;;11.25;8.65;;;;;;;;;;4545812;28;20681;-65
2021/11/20 12:19:53;;;;;;;10.57;8.30;;;;;;;;;;4544928;28;20049;-65
2021/11/20 12:22:23;;;;;;;9.82;7.68;;;;;;;;;;4554324;28;20021;-65
2021/11/20 12:24:55;;;;;;;10.68;8.65;;;;;;;;;;4545741;28;20116;-65
2021/11/20 12:27:24;;;;;;;;;;;;;;;;;;4546128;28;20029;-65
2021/11/20 12:29:55;;;;;;;9.90;8.05;;;;;;;;;;4546071;28;20405;-66
2021/11/20 12:32:13;;;;;;;10.98;8.68;;;;;;;;;;4548106;28;20123;-65
2021/11/20 12:34:46;;;;;;;11.50;8.98;;;;;;;;;;4546391;28;20547;-66
2021/11/20 12:37:05;;;;;;;9.98;8.23;;;;;;;;;;4546682;28;20017;-65
2021/11/20 12:39:28;;;;;;;10.93;8.27;;;;;;;;;;4545821;28;21011;-65
2021/11/20 12:41:41;;;;;;;10.38;8.65;;;;;;;;;;4547749;28;20113;-65
2021/11/20 12:44:13;;;;;;;10.40;8.55;;;;;;;;;;4546996;28;20132;-65
2021/11/20 12:46:44;;;;;;;10.60;8.43;;;;;;;;;;4545421;28;20788;-65
2021/11/20 12:49:33;;;;;;;9.75;7.78;;;;;;;;;;4542724;28;20029;-65
2021/11/20 12:52:01;;;;;;;10.13;7.97;;;;;;;;;;4481137;28;20129;-65
2021/11/20 12:54:46;;;;;;;10.10;8.35;;;;;;;;;;4544012;28;20044;-66
2021/11/20 12:57:30;;;;;;;9.32;7.68;;;;;;;;;;4553322;28;20025;-65
2021/11/20 12:59:47;;;;;;;9.57;7.95;;;;;;;;;;4547980;28;20044;-65
2021/11/20 13:02:04;;;;;;;10.15;8.13;;;;;;;;;;4527709;28;20188;-65
2021/11/20 13:04:23;;;;;;;13.35;11.65;;;;;;;;;;4544505;28;20071;-65
2021/11/20 13:06:51;;;;;;;10.65;9.20;;;;;;;;;;4544472;28;20036;-65
2021/11/20 13:09:21;;;;;;;12.18;10.20;;;;;;;;;;4528483;28;20099;-65
2021/11/20 13:11:47;;;;;;;10.73;9.18;;;;;;;;;;4545754;28;20074;-65
2021/11/20 13:14:16;;;;;;;10.95;8.93;;;;;;;;;;4543701;28;20756;-66
2021/11/20 13:16:48;;;;;;;9.70;8.07;;;;;;;;;;4543409;28;20560;-65
2021/11/20 13:19:01;;;;;;;;;;;;;;;;;;4543218;28;20044;-65
2021/11/20 13:21:23;;;;;;;10.27;8.38;;;;;;;;;;4552978;28;19912;-65
2021/11/20 13:23:35;;;;;;;9.52;7.60;;;;;;;;;;4545252;28;20029;-65
2021/11/20 13:26:01;;;;;;;8.90;7.13;;;;;;;;;;4543722;28;20033;-65
2021/11/20 13:28:12;;;;;;;8.65;6.70;;;;;;;;;;4543740;28;20254;-66
2021/11/20 13:30:34;;;;;;;9.70;7.27;;;;;;;;;;4545034;28;20035;-66
2021/11/20 13:32:46;;;;;;;8.02;6.50;;;;;;;;;;4547019;28;20615;-65
2021/11/20 13:34:57;;;;;;;9.07;6.78;;;;;;;;;;4543325;28;20647;-66
2021/11/20 13:37:12;;;;;;;9.43;7.17;;;;;;;;;;4553139;28;20032;-66
2021/11/20 13:39:22;;;;;;;8.93;6.65;;;;;;;;;;4543999;28;20123;-65
2021/11/20 13:41:33;;;;;;;8.43;6.23;;;;;;;;;;4544270;28;20560;-66
2021/11/20 13:43:46;;;;;;;10.05;7.18;;;;;;;;;;4546619;28;20602;-65